sensor_id;sensor_type;location;lat;lon;timestamp;P1;durP1;ratioP1;P2;durP2;ratioP2
56269;SDS011;42176;43.240;27.880;2023-04-25T00:02:18;11.52;;;4.95;;
56269;SDS011;42176;43.240;27.880;2023-04-25T00:04:44;18.55;;;5.72;;
56269;SDS011;42176;43.240;27.880;2023-04-25T00:07:09;13.23;;;5.63;;
56269;SDS011;42176;43.240;27.880;2023-04-25T00:09:35;16.83;;;5.93;;
56269;SDS011;42176;43.240;27.880;2023-04-25T00:12:01;22.15;;;5.28;;
56269;SDS011;42176;43.240;27.880;2023-04-25T00:14:26;14.25;;;5.28;;
56269;SDS011;42176;43.240;27.880;2023-04-25T00:16:52;9.73;;;4.82;;
56269;SDS011;42176;43.240;27.880;2023-04-25T00:19:19;7.80;;;3.97;;
56269;SDS011;42176;43.240;27.880;2023-04-25T00:21:44;17.45;;;5.60;;
56269;SDS011;42176;43.240;27.880;2023-04-25T00:24:11;6.50;;;4.22;;
56269;SDS011;42176;43.240;27.880;2023-04-25T00:26:37;16.33;;;5.00;;
56269;SDS011;42176;43.240;27.880;2023-04-25T00:29:02;17.60;;;5.80;;
56269;SDS011;42176;43.240;27.880;2023-04-25T00:31:28;8.60;;;4.25;;
56269;SDS011;42176;43.240;27.880;2023-04-25T00:33:54;14.82;;;5.65;;
56269;SDS011;42176;43.240;27.880;2023-04-25T00:36:19;15.95;;;5.00;;
56269;SDS011;42176;43.240;27.880;2023-04-25T00:38:45;13.80;;;5.55;;
56269;SDS011;42176;43.240;27.880;2023-04-25T00:41:10;15.30;;;5.63;;
56269;SDS011;42176;43.240;27.880;2023-04-25T00:43:37;12.65;;;4.88;;
56269;SDS011;42176;43.240;27.880;2023-04-25T00:46:02;13.52;;;5.28;;
56269;SDS011;42176;43.240;27.880;2023-04-25T00:48:28;7.55;;;4.30;;
56269;SDS011;42176;43.240;27.880;2023-04-25T00:50:55;12.90;;;4.32;;
56269;SDS011;42176;43.240;27.880;2023-04-25T00:53:22;13.43;;;4.40;;
56269;SDS011;42176;43.240;27.880;2023-04-25T00:55:49;13.88;;;5.30;;
56269;SDS011;42176;43.240;27.880;2023-04-25T00:58:18;17.38;;;5.80;;
56269;SDS011;42176;43.240;27.880;2023-04-25T01:00:45;12.40;;;5.43;;
56269;SDS011;42176;43.240;27.880;2023-04-25T01:03:12;9.80;;;5.00;;
56269;SDS011;42176;43.240;27.880;2023-04-25T01:05:41;13.55;;;5.22;;
56269;SDS011;42176;43.240;27.880;2023-04-25T01:08:07;17.90;;;5.22;;
56269;SDS011;42176;43.240;27.880;2023-04-25T01:10:33;13.75;;;5.90;;
56269;SDS011;42176;43.240;27.880;2023-04-25T01:12:58;14.57;;;6.60;;
56269;SDS011;42176;43.240;27.880;2023-04-25T01:15:24;14.35;;;4.85;;
56269;SDS011;42176;43.240;27.880;2023-04-25T01:17:49;12.05;;;5.35;;
56269;SDS011;42176;43.240;27.880;2023-04-25T01:20:15;11.25;;;6.25;;
56269;SDS011;42176;43.240;27.880;2023-04-25T01:25:30;10.20;;;5.10;;
56269;SDS011;42176;43.240;27.880;2023-04-25T01:27:56;11.35;;;4.93;;
56269;SDS011;42176;43.240;27.880;2023-04-25T01:30:22;13.38;;;5.50;;
56269;SDS011;42176;43.240;27.880;2023-04-25T01:32:48;10.23;;;3.25;;
56269;SDS011;42176;43.240;27.880;2023-04-25T01:35:14;11.98;;;4.45;;
56269;SDS011;42176;43.240;27.880;2023-04-25T01:37:40;13.82;;;6.38;;
56269;SDS011;42176;43.240;27.880;2023-04-25T01:40:07;12.27;;;5.40;;
56269;SDS011;42176;43.240;27.880;2023-04-25T01:42:35;26.92;;;6.07;;
56269;SDS011;42176;43.240;27.880;2023-04-25T01:45:02;17.40;;;6.32;;
56269;SDS011;42176;43.240;27.880;2023-04-25T01:47:28;11.60;;;6.18;;
56269;SDS011;42176;43.240;27.880;2023-04-25T01:49:54;20.00;;;6.50;;
56269;SDS011;42176;43.240;27.880;2023-04-25T01:52:19;12.70;;;5.72;;
56269;SDS011;42176;43.240;27.880;2023-04-25T01:54:45;12.10;;;5.15;;
56269;SDS011;42176;43.240;27.880;2023-04-25T01:57:11;17.15;;;6.85;;
56269;SDS011;42176;43.240;27.880;2023-04-25T01:59:37;10.18;;;6.05;;
56269;SDS011;42176;43.240;27.880;2023-04-25T02:02:03;20.30;;;6.28;;
56269;SDS011;42176;43.240;27.880;2023-04-25T02:04:32;15.88;;;6.57;;
56269;SDS011;42176;43.240;27.880;2023-04-25T02:06:58;14.93;;;6.10;;
56269;SDS011;42176;43.240;27.880;2023-04-25T02:09:24;15.73;;;6.60;;
56269;SDS011;42176;43.240;27.880;2023-04-25T02:11:49;17.23;;;6.78;;
56269;SDS011;42176;43.240;27.880;2023-04-25T02:14:15;12.70;;;5.57;;
56269;SDS011;42176;43.240;27.880;2023-04-25T02:16:41;13.02;;;5.82;;
56269;SDS011;42176;43.240;27.880;2023-04-25T02:19:08;17.15;;;6.45;;
56269;SDS011;42176;43.240;27.880;2023-04-25T02:21:35;16.02;;;7.47;;
56269;SDS011;42176;43.240;27.880;2023-04-25T02:24:00;20.98;;;7.30;;
56269;SDS011;42176;43.240;27.880;2023-04-25T02:26:26;15.75;;;6.57;;
56269;SDS011;42176;43.240;27.880;2023-04-25T02:28:52;17.05;;;6.60;;
56269;SDS011;42176;43.240;27.880;2023-04-25T02:31:17;22.90;;;7.55;;
56269;SDS011;42176;43.240;27.880;2023-04-25T02:33:43;21.70;;;8.00;;
56269;SDS011;42176;43.240;27.880;2023-04-25T02:36:09;17.17;;;6.32;;
56269;SDS011;42176;43.240;27.880;2023-04-25T02:38:34;11.98;;;5.03;;
56269;SDS011;42176;43.240;27.880;2023-04-25T02:41:00;14.00;;;6.78;;
56269;SDS011;42176;43.240;27.880;2023-04-25T02:43:25;16.20;;;6.07;;
56269;SDS011;42176;43.240;27.880;2023-04-25T02:45:51;20.95;;;7.68;;
56269;SDS011;42176;43.240;27.880;2023-04-25T02:48:16;26.02;;;8.02;;
56269;SDS011;42176;43.240;27.880;2023-04-25T02:50:42;18.25;;;7.60;;
56269;SDS011;42176;43.240;27.880;2023-04-25T02:53:07;24.85;;;7.32;;
56269;SDS011;42176;43.240;27.880;2023-04-25T02:55:33;14.80;;;8.25;;
56269;SDS011;42176;43.240;27.880;2023-04-25T02:57:58;12.65;;;5.95;;
56269;SDS011;42176;43.240;27.880;2023-04-25T03:00:23;19.83;;;7.78;;
56269;SDS011;42176;43.240;27.880;2023-04-25T03:02:49;15.52;;;7.82;;
56269;SDS011;42176;43.240;27.880;2023-04-25T03:05:14;26.08;;;8.35;;
56269;SDS011;42176;43.240;27.880;2023-04-25T03:07:40;25.52;;;8.48;;
56269;SDS011;42176;43.240;27.880;2023-04-25T03:10:06;20.52;;;7.95;;
56269;SDS011;42176;43.240;27.880;2023-04-25T03:12:32;10.60;;;6.28;;
56269;SDS011;42176;43.240;27.880;2023-04-25T03:14:58;24.17;;;8.30;;
56269;SDS011;42176;43.240;27.880;2023-04-25T03:17:23;18.17;;;7.57;;
56269;SDS011;42176;43.240;27.880;2023-04-25T03:19:48;16.27;;;6.75;;
56269;SDS011;42176;43.240;27.880;2023-04-25T03:22:14;18.00;;;8.60;;
56269;SDS011;42176;43.240;27.880;2023-04-25T03:24:39;28.00;;;8.77;;
56269;SDS011;42176;43.240;27.880;2023-04-25T03:27:05;16.35;;;8.80;;
56269;SDS011;42176;43.240;27.880;2023-04-25T03:29:30;17.25;;;8.77;;
56269;SDS011;42176;43.240;27.880;2023-04-25T03:31:56;19.25;;;7.75;;
56269;SDS011;42176;43.240;27.880;2023-04-25T03:34:21;21.10;;;8.57;;
56269;SDS011;42176;43.240;27.880;2023-04-25T03:39:31;15.60;;;7.32;;
56269;SDS011;42176;43.240;27.880;2023-04-25T03:41:56;16.67;;;7.82;;
56269;SDS011;42176;43.240;27.880;2023-04-25T03:44:22;18.45;;;7.97;;
56269;SDS011;42176;43.240;27.880;2023-04-25T03:46:49;13.52;;;7.60;;
56269;SDS011;42176;43.240;27.880;2023-04-25T03:49:14;21.08;;;8.05;;
56269;SDS011;42176;43.240;27.880;2023-04-25T03:51:40;13.93;;;7.75;;
56269;SDS011;42176;43.240;27.880;2023-04-25T03:54:05;12.80;;;7.35;;
56269;SDS011;42176;43.240;27.880;2023-04-25T03:56:31;25.63;;;8.63;;
56269;SDS011;42176;43.240;27.880;2023-04-25T03:58:56;18.42;;;8.73;;
56269;SDS011;42176;43.240;27.880;2023-04-25T04:01:21;22.17;;;8.05;;
56269;SDS011;42176;43.240;27.880;2023-04-25T04:03:47;19.58;;;8.85;;
56269;SDS011;42176;43.240;27.880;2023-04-25T04:06:12;18.55;;;7.22;;
56269;SDS011;42176;43.240;27.880;2023-04-25T04:08:38;15.02;;;7.72;;
56269;SDS011;42176;43.240;27.880;2023-04-25T04:11:04;17.23;;;8.32;;
56269;SDS011;42176;43.240;27.880;2023-04-25T04:13:30;16.48;;;8.43;;
56269;SDS011;42176;43.240;27.880;2023-04-25T04:15:55;20.92;;;8.10;;
56269;SDS011;42176;43.240;27.880;2023-04-25T04:18:21;15.15;;;6.20;;
56269;SDS011;42176;43.240;27.880;2023-04-25T04:20:47;14.38;;;7.22;;
56269;SDS011;42176;43.240;27.880;2023-04-25T04:23:12;24.92;;;6.90;;
56269;SDS011;42176;43.240;27.880;2023-04-25T04:25:38;11.73;;;5.28;;
56269;SDS011;42176;43.240;27.880;2023-04-25T04:28:05;14.85;;;5.85;;
56269;SDS011;42176;43.240;27.880;2023-04-25T04:30:30;11.65;;;5.25;;
56269;SDS011;42176;43.240;27.880;2023-04-25T04:32:58;15.27;;;5.85;;
56269;SDS011;42176;43.240;27.880;2023-04-25T04:35:25;15.57;;;4.85;;
56269;SDS011;42176;43.240;27.880;2023-04-25T04:37:51;14.40;;;5.32;;
56269;SDS011;42176;43.240;27.880;2023-04-25T04:40:16;14.88;;;5.63;;
56269;SDS011;42176;43.240;27.880;2023-04-25T04:42:43;17.70;;;6.15;;
56269;SDS011;42176;43.240;27.880;2023-04-25T04:45:10;11.20;;;5.00;;
56269;SDS011;42176;43.240;27.880;2023-04-25T04:47:38;20.88;;;5.38;;
56269;SDS011;42176;43.240;27.880;2023-04-25T04:50:09;15.40;;;5.05;;
56269;SDS011;42176;43.240;27.880;2023-04-25T04:52:35;15.07;;;6.10;;
56269;SDS011;42176;43.240;27.880;2023-04-25T04:55:02;15.65;;;5.47;;
56269;SDS011;42176;43.240;27.880;2023-04-25T04:57:29;15.93;;;5.97;;
56269;SDS011;42176;43.240;27.880;2023-04-25T04:59:54;17.42;;;6.72;;
56269;SDS011;42176;43.240;27.880;2023-04-25T05:02:20;14.55;;;5.47;;
56269;SDS011;42176;43.240;27.880;2023-04-25T05:04:45;21.20;;;5.45;;
56269;SDS011;42176;43.240;27.880;2023-04-25T05:07:11;12.48;;;5.60;;
56269;SDS011;42176;43.240;27.880;2023-04-25T05:09:37;8.68;;;5.03;;
56269;SDS011;42176;43.240;27.880;2023-04-25T05:12:02;9.82;;;5.10;;
56269;SDS011;42176;43.240;27.880;2023-04-25T05:14:28;11.00;;;4.68;;
56269;SDS011;42176;43.240;27.880;2023-04-25T05:16:54;18.00;;;5.97;;
56269;SDS011;42176;43.240;27.880;2023-04-25T05:19:19;8.48;;;4.60;;
56269;SDS011;42176;43.240;27.880;2023-04-25T05:21:45;14.13;;;5.55;;
56269;SDS011;42176;43.240;27.880;2023-04-25T05:24:10;11.30;;;5.38;;
56269;SDS011;42176;43.240;27.880;2023-04-25T05:26:35;12.05;;;4.78;;
56269;SDS011;42176;43.240;27.880;2023-04-25T05:29:02;22.95;;;6.20;;
56269;SDS011;42176;43.240;27.880;2023-04-25T05:31:28;11.48;;;5.40;;
56269;SDS011;42176;43.240;27.880;2023-04-25T05:33:54;11.75;;;4.88;;
56269;SDS011;42176;43.240;27.880;2023-04-25T05:36:19;19.35;;;5.07;;
56269;SDS011;42176;43.240;27.880;2023-04-25T05:38:45;14.02;;;4.22;;
56269;SDS011;42176;43.240;27.880;2023-04-25T05:41:10;11.35;;;4.88;;
56269;SDS011;42176;43.240;27.880;2023-04-25T05:43:36;9.70;;;4.40;;
56269;SDS011;42176;43.240;27.880;2023-04-25T05:46:01;13.75;;;5.72;;
56269;SDS011;42176;43.240;27.880;2023-04-25T05:48:27;23.58;;;5.93;;
56269;SDS011;42176;43.240;27.880;2023-04-25T05:50:53;12.93;;;5.25;;
56269;SDS011;42176;43.240;27.880;2023-04-25T05:53:19;14.50;;;5.85;;
56269;SDS011;42176;43.240;27.880;2023-04-25T05:55:45;10.00;;;4.85;;
56269;SDS011;42176;43.240;27.880;2023-04-25T05:58:11;14.57;;;5.13;;
56269;SDS011;42176;43.240;27.880;2023-04-25T06:00:37;12.00;;;5.57;;
56269;SDS011;42176;43.240;27.880;2023-04-25T06:03:03;11.63;;;4.38;;
56269;SDS011;42176;43.240;27.880;2023-04-25T06:05:30;13.93;;;4.68;;
56269;SDS011;42176;43.240;27.880;2023-04-25T06:07:56;13.75;;;4.93;;
56269;SDS011;42176;43.240;27.880;2023-04-25T06:10:21;10.25;;;4.18;;
56269;SDS011;42176;43.240;27.880;2023-04-25T06:12:47;18.05;;;5.43;;
56269;SDS011;42176;43.240;27.880;2023-04-25T06:15:13;9.55;;;4.63;;
56269;SDS011;42176;43.240;27.880;2023-04-25T06:17:38;8.95;;;4.78;;
56269;SDS011;42176;43.240;27.880;2023-04-25T06:20:04;11.93;;;5.18;;
56269;SDS011;42176;43.240;27.880;2023-04-25T06:22:30;19.05;;;6.40;;
56269;SDS011;42176;43.240;27.880;2023-04-25T06:24:56;15.70;;;4.88;;
56269;SDS011;42176;43.240;27.880;2023-04-25T06:27:24;13.80;;;5.70;;
56269;SDS011;42176;43.240;27.880;2023-04-25T06:29:50;10.35;;;5.20;;
56269;SDS011;42176;43.240;27.880;2023-04-25T06:32:15;12.13;;;5.13;;
56269;SDS011;42176;43.240;27.880;2023-04-25T06:34:40;14.90;;;4.85;;
56269;SDS011;42176;43.240;27.880;2023-04-25T06:37:06;13.23;;;4.50;;
56269;SDS011;42176;43.240;27.880;2023-04-25T06:39:31;9.55;;;3.60;;
56269;SDS011;42176;43.240;27.880;2023-04-25T06:41:57;9.30;;;4.10;;
56269;SDS011;42176;43.240;27.880;2023-04-25T06:44:22;13.80;;;4.53;;
56269;SDS011;42176;43.240;27.880;2023-04-25T06:46:49;13.32;;;4.15;;
56269;SDS011;42176;43.240;27.880;2023-04-25T06:49:14;8.43;;;4.25;;
56269;SDS011;42176;43.240;27.880;2023-04-25T06:51:40;8.38;;;3.30;;
56269;SDS011;42176;43.240;27.880;2023-04-25T06:54:06;7.13;;;3.35;;
56269;SDS011;42176;43.240;27.880;2023-04-25T06:56:31;9.88;;;3.50;;
56269;SDS011;42176;43.240;27.880;2023-04-25T06:58:57;11.63;;;3.72;;
56269;SDS011;42176;43.240;27.880;2023-04-25T07:01:22;12.60;;;3.67;;
56269;SDS011;42176;43.240;27.880;2023-04-25T07:03:48;4.70;;;2.90;;
56269;SDS011;42176;43.240;27.880;2023-04-25T07:06:13;9.57;;;3.38;;
56269;SDS011;42176;43.240;27.880;2023-04-25T07:08:38;5.10;;;3.40;;
56269;SDS011;42176;43.240;27.880;2023-04-25T07:11:04;7.18;;;3.53;;
56269;SDS011;42176;43.240;27.880;2023-04-25T07:13:29;14.35;;;4.00;;
56269;SDS011;42176;43.240;27.880;2023-04-25T07:15:55;9.88;;;4.43;;
56269;SDS011;42176;43.240;27.880;2023-04-25T07:18:21;7.45;;;3.50;;
56269;SDS011;42176;43.240;27.880;2023-04-25T07:20:47;9.65;;;4.70;;
56269;SDS011;42176;43.240;27.880;2023-04-25T07:23:12;5.35;;;3.65;;
56269;SDS011;42176;43.240;27.880;2023-04-25T07:25:38;5.47;;;3.63;;
56269;SDS011;42176;43.240;27.880;2023-04-25T07:28:03;11.20;;;4.07;;
56269;SDS011;42176;43.240;27.880;2023-04-25T07:30:29;9.52;;;3.67;;
56269;SDS011;42176;43.240;27.880;2023-04-25T07:32:55;7.78;;;4.00;;
56269;SDS011;42176;43.240;27.880;2023-04-25T07:35:20;9.23;;;4.47;;
56269;SDS011;42176;43.240;27.880;2023-04-25T07:37:46;8.80;;;3.33;;
56269;SDS011;42176;43.240;27.880;2023-04-25T07:40:11;11.35;;;3.67;;
56269;SDS011;42176;43.240;27.880;2023-04-25T07:42:37;11.70;;;5.30;;
56269;SDS011;42176;43.240;27.880;2023-04-25T07:45:02;3.53;;;3.13;;
56269;SDS011;42176;43.240;27.880;2023-04-25T07:47:28;8.70;;;3.53;;
56269;SDS011;42176;43.240;27.880;2023-04-25T07:49:54;8.50;;;3.65;;
56269;SDS011;42176;43.240;27.880;2023-04-25T07:52:19;4.90;;;3.20;;
56269;SDS011;42176;43.240;27.880;2023-04-25T07:54:45;10.05;;;3.70;;
56269;SDS011;42176;43.240;27.880;2023-04-25T07:57:12;8.43;;;3.78;;
56269;SDS011;42176;43.240;27.880;2023-04-25T07:59:38;10.63;;;3.75;;
56269;SDS011;42176;43.240;27.880;2023-04-25T08:02:04;7.30;;;3.53;;
56269;SDS011;42176;43.240;27.880;2023-04-25T08:04:30;6.93;;;3.88;;
56269;SDS011;42176;43.240;27.880;2023-04-25T08:06:56;11.68;;;4.90;;
56269;SDS011;42176;43.240;27.880;2023-04-25T08:09:21;9.65;;;4.45;;
56269;SDS011;42176;43.240;27.880;2023-04-25T08:11:47;8.23;;;3.97;;
56269;SDS011;42176;43.240;27.880;2023-04-25T08:14:13;6.53;;;4.40;;
56269;SDS011;42176;43.240;27.880;2023-04-25T08:16:38;6.40;;;3.38;;
56269;SDS011;42176;43.240;27.880;2023-04-25T08:19:04;4.28;;;3.35;;
56269;SDS011;42176;43.240;27.880;2023-04-25T08:21:30;7.55;;;5.03;;
56269;SDS011;42176;43.240;27.880;2023-04-25T08:23:56;7.40;;;5.10;;
56269;SDS011;42176;43.240;27.880;2023-04-25T08:26:23;6.95;;;4.25;;
56269;SDS011;42176;43.240;27.880;2023-04-25T08:28:49;5.10;;;3.50;;
56269;SDS011;42176;43.240;27.880;2023-04-25T08:31:15;15.50;;;3.55;;
56269;SDS011;42176;43.240;27.880;2023-04-25T08:33:41;11.60;;;4.60;;
56269;SDS011;42176;43.240;27.880;2023-04-25T08:36:07;10.38;;;5.25;;
56269;SDS011;42176;43.240;27.880;2023-04-25T08:38:32;12.27;;;5.53;;
56269;SDS011;42176;43.240;27.880;2023-04-25T08:40:58;14.43;;;5.40;;
56269;SDS011;42176;43.240;27.880;2023-04-25T08:43:25;10.00;;;5.43;;
56269;SDS011;42176;43.240;27.880;2023-04-25T08:45:52;8.57;;;5.20;;
56269;SDS011;42176;43.240;27.880;2023-04-25T08:48:19;8.60;;;4.50;;
56269;SDS011;42176;43.240;27.880;2023-04-25T08:50:50;11.77;;;4.50;;
56269;SDS011;42176;43.240;27.880;2023-04-25T08:53:17;5.10;;;3.90;;
56269;SDS011;42176;43.240;27.880;2023-04-25T08:55:56;8.00;;;4.50;;
56269;SDS011;42176;43.240;27.880;2023-04-25T08:58:22;14.48;;;4.82;;
56269;SDS011;42176;43.240;27.880;2023-04-25T09:00:49;14.38;;;4.97;;
56269;SDS011;42176;43.240;27.880;2023-04-25T09:03:16;14.60;;;4.45;;
56269;SDS011;42176;43.240;27.880;2023-04-25T09:05:42;10.80;;;4.13;;
56269;SDS011;42176;43.240;27.880;2023-04-25T09:08:08;11.32;;;4.50;;
56269;SDS011;42176;43.240;27.880;2023-04-25T09:10:34;8.63;;;4.05;;
56269;SDS011;42176;43.240;27.880;2023-04-25T09:15:57;11.70;;;4.75;;
56269;SDS011;42176;43.240;27.880;2023-04-25T09:18:26;11.57;;;4.47;;
56269;SDS011;42176;43.240;27.880;2023-04-25T09:20:54;9.98;;;3.88;;
56269;SDS011;42176;43.240;27.880;2023-04-25T09:23:44;8.18;;;3.58;;
56269;SDS011;42176;43.240;27.880;2023-04-25T09:26:18;12.10;;;3.72;;
56269;SDS011;42176;43.240;27.880;2023-04-25T09:28:45;8.00;;;4.30;;
56269;SDS011;42176;43.240;27.880;2023-04-25T09:31:20;6.32;;;4.13;;
56269;SDS011;42176;43.240;27.880;2023-04-25T09:33:47;9.68;;;4.05;;
56269;SDS011;42176;43.240;27.880;2023-04-25T09:36:12;7.57;;;4.07;;
56269;SDS011;42176;43.240;27.880;2023-04-25T09:38:42;6.32;;;3.50;;
56269;SDS011;42176;43.240;27.880;2023-04-25T09:41:09;9.80;;;4.22;;
56269;SDS011;42176;43.240;27.880;2023-04-25T09:43:35;12.93;;;4.25;;
56269;SDS011;42176;43.240;27.880;2023-04-25T09:46:02;8.80;;;4.35;;
56269;SDS011;42176;43.240;27.880;2023-04-25T09:48:28;7.85;;;3.75;;
56269;SDS011;42176;43.240;27.880;2023-04-25T09:53:33;6.53;;;3.63;;
56269;SDS011;42176;43.240;27.880;2023-04-25T09:56:06;11.77;;;3.85;;
56269;SDS011;42176;43.240;27.880;2023-04-25T09:58:33;6.28;;;3.97;;
56269;SDS011;42176;43.240;27.880;2023-04-25T10:01:01;8.57;;;4.00;;
56269;SDS011;42176;43.240;27.880;2023-04-25T10:03:31;11.43;;;4.32;;
56269;SDS011;42176;43.240;27.880;2023-04-25T10:06:02;7.22;;;3.70;;
56269;SDS011;42176;43.240;27.880;2023-04-25T10:08:33;4.57;;;3.38;;
56269;SDS011;42176;43.240;27.880;2023-04-25T10:11:03;6.07;;;4.07;;
56269;SDS011;42176;43.240;27.880;2023-04-25T10:13:31;8.77;;;3.70;;
56269;SDS011;42176;43.240;27.880;2023-04-25T10:15:58;5.28;;;3.50;;
56269;SDS011;42176;43.240;27.880;2023-04-25T10:18:27;5.45;;;4.28;;
56269;SDS011;42176;43.240;27.880;2023-04-25T10:20:55;5.60;;;3.70;;
56269;SDS011;42176;43.240;27.880;2023-04-25T10:23:22;7.05;;;3.75;;
56269;SDS011;42176;43.240;27.880;2023-04-25T10:25:49;7.30;;;4.30;;
56269;SDS011;42176;43.240;27.880;2023-04-25T10:28:16;8.13;;;4.45;;
56269;SDS011;42176;43.240;27.880;2023-04-25T10:31:01;10.85;;;3.65;;
56269;SDS011;42176;43.240;27.880;2023-04-25T10:33:38;5.07;;;3.22;;
56269;SDS011;42176;43.240;27.880;2023-04-25T10:36:13;5.00;;;3.00;;
56269;SDS011;42176;43.240;27.880;2023-04-25T10:38:40;6.22;;;3.38;;
56269;SDS011;42176;43.240;27.880;2023-04-25T10:41:08;7.05;;;3.55;;
56269;SDS011;42176;43.240;27.880;2023-04-25T10:43:44;6.10;;;3.17;;
56269;SDS011;42176;43.240;27.880;2023-04-25T10:46:18;5.35;;;3.08;;
56269;SDS011;42176;43.240;27.880;2023-04-25T10:48:51;3.72;;;2.92;;
56269;SDS011;42176;43.240;27.880;2023-04-25T10:51:24;6.75;;;3.80;;
56269;SDS011;42176;43.240;27.880;2023-04-25T10:56:20;4.72;;;3.15;;
56269;SDS011;42176;43.240;27.880;2023-04-25T10:58:50;8.93;;;3.95;;
56269;SDS011;42176;43.240;27.880;2023-04-25T11:01:19;7.70;;;3.95;;
56269;SDS011;42176;43.240;27.880;2023-04-25T11:03:46;7.43;;;2.97;;
56269;SDS011;42176;43.240;27.880;2023-04-25T11:07:02;10.13;;;3.60;;
56269;SDS011;42176;43.240;27.880;2023-04-25T11:09:12;8.15;;;3.83;;
56269;SDS011;42176;43.240;27.880;2023-04-25T11:11:38;6.45;;;2.80;;
56269;SDS011;42176;43.240;27.880;2023-04-25T11:14:04;6.00;;;3.88;;
56269;SDS011;42176;43.240;27.880;2023-04-25T11:16:29;6.40;;;3.38;;
56269;SDS011;42176;43.240;27.880;2023-04-25T11:18:56;7.78;;;3.25;;
56269;SDS011;42176;43.240;27.880;2023-04-25T11:21:23;4.15;;;3.35;;
56269;SDS011;42176;43.240;27.880;2023-04-25T11:23:50;4.57;;;3.05;;
56269;SDS011;42176;43.240;27.880;2023-04-25T11:26:16;6.57;;;3.67;;
56269;SDS011;42176;43.240;27.880;2023-04-25T11:28:44;10.23;;;3.50;;
56269;SDS011;42176;43.240;27.880;2023-04-25T11:31:10;8.55;;;3.90;;
56269;SDS011;42176;43.240;27.880;2023-04-25T11:33:35;6.35;;;3.03;;
56269;SDS011;42176;43.240;27.880;2023-04-25T11:36:01;7.93;;;2.85;;
56269;SDS011;42176;43.240;27.880;2023-04-25T11:38:27;8.40;;;3.08;;
56269;SDS011;42176;43.240;27.880;2023-04-25T11:40:52;6.10;;;2.97;;
56269;SDS011;42176;43.240;27.880;2023-04-25T11:43:21;8.40;;;4.03;;
56269;SDS011;42176;43.240;27.880;2023-04-25T11:45:48;9.70;;;4.10;;
56269;SDS011;42176;43.240;27.880;2023-04-25T11:48:15;3.30;;;2.97;;
56269;SDS011;42176;43.240;27.880;2023-04-25T11:50:41;13.68;;;3.17;;
56269;SDS011;42176;43.240;27.880;2023-04-25T11:53:06;7.25;;;4.40;;
56269;SDS011;42176;43.240;27.880;2023-04-25T11:55:33;4.18;;;3.35;;
56269;SDS011;42176;43.240;27.880;2023-04-25T11:57:59;9.77;;;3.88;;
56269;SDS011;42176;43.240;27.880;2023-04-25T12:00:26;4.35;;;3.33;;
56269;SDS011;42176;43.240;27.880;2023-04-25T12:02:52;5.38;;;3.35;;
56269;SDS011;42176;43.240;27.880;2023-04-25T12:05:20;8.43;;;3.55;;
56269;SDS011;42176;43.240;27.880;2023-04-25T12:07:50;9.43;;;3.42;;
56269;SDS011;42176;43.240;27.880;2023-04-25T12:10:16;5.38;;;3.00;;
56269;SDS011;42176;43.240;27.880;2023-04-25T12:12:43;9.02;;;3.28;;
56269;SDS011;42176;43.240;27.880;2023-04-25T12:15:17;6.65;;;3.20;;
56269;SDS011;42176;43.240;27.880;2023-04-25T12:17:52;5.30;;;2.90;;
56269;SDS011;42176;43.240;27.880;2023-04-25T12:20:20;18.20;;;3.30;;
56269;SDS011;42176;43.240;27.880;2023-04-25T12:22:49;7.28;;;3.03;;
56269;SDS011;42176;43.240;27.880;2023-04-25T12:25:34;6.40;;;2.78;;
56269;SDS011;42176;43.240;27.880;2023-04-25T12:33:39;4.85;;;2.90;;
56269;SDS011;42176;43.240;27.880;2023-04-25T12:36:06;8.10;;;3.05;;
56269;SDS011;42176;43.240;27.880;2023-04-25T12:38:37;7.75;;;3.72;;
56269;SDS011;42176;43.240;27.880;2023-04-25T12:41:05;4.75;;;3.60;;
56269;SDS011;42176;43.240;27.880;2023-04-25T12:43:32;5.80;;;3.55;;
56269;SDS011;42176;43.240;27.880;2023-04-25T12:45:58;11.13;;;3.85;;
56269;SDS011;42176;43.240;27.880;2023-04-25T12:48:23;4.07;;;3.47;;
56269;SDS011;42176;43.240;27.880;2023-04-25T12:50:49;5.40;;;3.17;;
56269;SDS011;42176;43.240;27.880;2023-04-25T12:53:18;5.10;;;3.45;;
56269;SDS011;42176;43.240;27.880;2023-04-25T12:55:45;8.18;;;4.05;;
56269;SDS011;42176;43.240;27.880;2023-04-25T12:58:12;7.45;;;3.70;;
56269;SDS011;42176;43.240;27.880;2023-04-25T13:00:38;5.88;;;3.60;;
56269;SDS011;42176;43.240;27.880;2023-04-25T13:03:04;6.90;;;4.13;;
56269;SDS011;42176;43.240;27.880;2023-04-25T13:05:29;5.93;;;4.10;;
56269;SDS011;42176;43.240;27.880;2023-04-25T13:07:55;4.50;;;3.20;;
56269;SDS011;42176;43.240;27.880;2023-04-25T13:10:21;5.82;;;4.05;;
56269;SDS011;42176;43.240;27.880;2023-04-25T13:12:46;13.90;;;5.25;;
56269;SDS011;42176;43.240;27.880;2023-04-25T13:15:12;7.65;;;4.60;;
56269;SDS011;42176;43.240;27.880;2023-04-25T13:17:38;8.93;;;5.07;;
56269;SDS011;42176;43.240;27.880;2023-04-25T13:20:04;6.30;;;4.15;;
56269;SDS011;42176;43.240;27.880;2023-04-25T13:22:34;8.85;;;4.57;;
56269;SDS011;42176;43.240;27.880;2023-04-25T13:25:04;5.57;;;4.53;;
56269;SDS011;42176;43.240;27.880;2023-04-25T13:27:30;14.70;;;5.47;;
56269;SDS011;42176;43.240;27.880;2023-04-25T13:29:57;9.70;;;6.18;;
56269;SDS011;42176;43.240;27.880;2023-04-25T13:32:34;15.48;;;5.25;;
56269;SDS011;42176;43.240;27.880;2023-04-25T13:35:09;10.25;;;5.80;;
56269;SDS011;42176;43.240;27.880;2023-04-25T13:37:39;13.30;;;5.82;;
56269;SDS011;42176;43.240;27.880;2023-04-25T13:40:08;10.80;;;5.90;;
56269;SDS011;42176;43.240;27.880;2023-04-25T13:42:39;8.47;;;4.63;;
56269;SDS011;42176;43.240;27.880;2023-04-25T13:45:05;12.45;;;4.63;;
56269;SDS011;42176;43.240;27.880;2023-04-25T13:47:31;9.98;;;6.13;;
56269;SDS011;42176;43.240;27.880;2023-04-25T13:49:57;9.82;;;5.47;;
56269;SDS011;42176;43.240;27.880;2023-04-25T13:52:22;10.25;;;6.50;;
56269;SDS011;42176;43.240;27.880;2023-04-25T13:54:49;15.50;;;8.00;;
56269;SDS011;42176;43.240;27.880;2023-04-25T13:57:15;11.55;;;6.47;;
56269;SDS011;42176;43.240;27.880;2023-04-25T13:59:41;10.70;;;7.00;;
56269;SDS011;42176;43.240;27.880;2023-04-25T14:02:06;16.08;;;8.57;;
56269;SDS011;42176;43.240;27.880;2023-04-25T14:04:32;17.02;;;8.02;;
56269;SDS011;42176;43.240;27.880;2023-04-25T14:06:58;17.05;;;8.98;;
56269;SDS011;42176;43.240;27.880;2023-04-25T14:09:24;15.43;;;8.82;;
56269;SDS011;42176;43.240;27.880;2023-04-25T14:11:53;19.30;;;9.43;;
56269;SDS011;42176;43.240;27.880;2023-04-25T14:14:20;18.90;;;9.82;;
56269;SDS011;42176;43.240;27.880;2023-04-25T14:16:46;14.05;;;8.10;;
56269;SDS011;42176;43.240;27.880;2023-04-25T14:19:15;25.00;;;10.02;;
56269;SDS011;42176;43.240;27.880;2023-04-25T14:21:41;21.10;;;9.93;;
56269;SDS011;42176;43.240;27.880;2023-04-25T14:24:08;19.73;;;10.70;;
56269;SDS011;42176;43.240;27.880;2023-04-25T14:26:34;20.38;;;10.93;;
56269;SDS011;42176;43.240;27.880;2023-04-25T14:29:00;23.13;;;10.18;;
56269;SDS011;42176;43.240;27.880;2023-04-25T14:31:26;18.73;;;10.38;;
56269;SDS011;42176;43.240;27.880;2023-04-25T14:33:51;21.80;;;9.15;;
56269;SDS011;42176;43.240;27.880;2023-04-25T14:36:17;18.10;;;9.45;;
56269;SDS011;42176;43.240;27.880;2023-04-25T14:38:42;13.75;;;8.18;;
56269;SDS011;42176;43.240;27.880;2023-04-25T14:41:08;22.40;;;8.77;;
56269;SDS011;42176;43.240;27.880;2023-04-25T14:43:34;26.85;;;9.98;;